createdAt,value
2022-07-31T00:00:29.593Z,101734.38
2022-07-31T00:02:58.913Z,101737.34
2022-07-31T00:05:27.478Z,101730.03
2022-07-31T00:07:55.738Z,101736.28
2022-07-31T00:10:25.385Z,101733.06
2022-07-31T00:12:53.749Z,101739.22
2022-07-31T00:15:22.168Z,101736.13
2022-07-31T00:17:50.742Z,101732.69
2022-07-31T00:20:19.453Z,101742.25
2022-07-31T00:22:49.013Z,101738.53
2022-07-31T00:25:18.856Z,101736.06
2022-07-31T00:27:48.617Z,101742.88
2022-07-31T00:30:18.802Z,101740.78
2022-07-31T00:32:48.890Z,101739.50
2022-07-31T00:35:20.374Z,101730.13
2022-07-31T00:37:48.625Z,101738.69
2022-07-31T00:40:18.595Z,101736.22
2022-07-31T00:42:48.000Z,101732.16
2022-07-31T00:45:16.068Z,101725.56
2022-07-31T00:47:44.356Z,101727.91
2022-07-31T00:50:14.267Z,101724.28
2022-07-31T00:52:43.278Z,101721.09
2022-07-31T00:55:11.505Z,101720.19
2022-07-31T00:57:39.658Z,101716.34
2022-07-31T01:00:10.863Z,101710.91
2022-07-31T01:02:46.463Z,101713.75
2022-07-31T01:05:15.556Z,101710.13
2022-07-31T01:07:43.585Z,101704.81
2022-07-31T01:10:15.601Z,101704.81
2022-07-31T01:12:54.333Z,101700.34
2022-07-31T01:15:25.468Z,101701.81
2022-07-31T01:17:54.681Z,101698.94
2022-07-31T01:20:22.797Z,101699.28
2022-07-31T01:23:09.536Z,101688.94
2022-07-31T01:25:56.121Z,101687.47
2022-07-31T01:28:59.021Z,101689.44
2022-07-31T01:31:31.581Z,101684.59
2022-07-31T01:34:06.878Z,101686.06
2022-07-31T01:36:37.926Z,101690.59
2022-07-31T01:39:06.725Z,101679.78
2022-07-31T01:41:44.622Z,101674.91
2022-07-31T01:44:16.625Z,101673.34
2022-07-31T01:46:46.716Z,101661.78
2022-07-31T01:49:19.064Z,101673.97
2022-07-31T01:51:50.191Z,101672.31
2022-07-31T01:54:21.730Z,101664.41
2022-07-31T01:56:51.892Z,101664.00
2022-07-31T01:59:24.460Z,101666.09
2022-07-31T02:02:13.411Z,101673.69
2022-07-31T02:04:42.086Z,101667.81
2022-07-31T02:07:10.998Z,101662.69
2022-07-31T02:09:52.006Z,101667.91
2022-07-31T02:12:33.190Z,101663.78
2022-07-31T02:15:05.793Z,101665.81
2022-07-31T02:17:35.156Z,101665.75
2022-07-31T02:20:34.178Z,101665.28
2022-07-31T02:23:03.714Z,101675.16
2022-07-31T02:25:36.005Z,101662.75
2022-07-31T02:28:11.008Z,101665.78
2022-07-31T02:30:46.297Z,101660.66
2022-07-31T02:33:23.328Z,101664.66
2022-07-31T02:35:57.723Z,101664.44
2022-07-31T02:38:30.506Z,101660.19
2022-07-31T02:41:01.704Z,101655.94
2022-07-31T02:43:35.047Z,101651.19
2022-07-31T02:46:21.285Z,101652.88
2022-07-31T02:48:52.224Z,101648.13
2022-07-31T02:51:27.204Z,101648.16
2022-07-31T02:54:00.473Z,101645.84
2022-07-31T02:56:37.097Z,101637.53
2022-07-31T02:59:09.037Z,101633.47
2022-07-31T03:01:59.799Z,101634.97
2022-07-31T03:04:33.297Z,101623.13
2022-07-31T03:07:02.415Z,101626.13
2022-07-31T03:09:33.195Z,101629.75
2022-07-31T03:12:21.659Z,101640.28
2022-07-31T03:14:51.415Z,101632.00
2022-07-31T03:17:22.554Z,101629.19
2022-07-31T03:19:53.522Z,101628.56
2022-07-31T03:22:22.009Z,101620.00
2022-07-31T03:24:52.425Z,101622.81
2022-07-31T03:27:20.733Z,101614.25
2022-07-31T03:29:50.734Z,101608.31
2022-07-31T03:32:22.649Z,101612.81
2022-07-31T03:34:51.985Z,101609.59
2022-07-31T03:37:22.341Z,101602.34
2022-07-31T03:39:52.609Z,101610.28
2022-07-31T03:42:21.587Z,101604.94
2022-07-31T03:44:50.614Z,101596.16
2022-07-31T03:47:19.593Z,101587.84
2022-07-31T03:49:50.313Z,101583.44
2022-07-31T03:52:20.532Z,101580.84
2022-07-31T03:54:51.733Z,101584.25
2022-07-31T03:57:25.344Z,101591.34
2022-07-31T03:59:59.386Z,101586.84
2022-07-31T04:02:29.910Z,101594.09
2022-07-31T04:05:30.519Z,101594.31
2022-07-31T04:08:01.131Z,101602.63
2022-07-31T04:10:31.669Z,101608.22
2022-07-31T04:13:02.779Z,101612.03
2022-07-31T04:15:34.288Z,101610.56
2022-07-31T04:18:04.415Z,101609.06
2022-07-31T04:20:39.953Z,101613.31
2022-07-31T04:23:09.274Z,101602.66
2022-07-31T04:25:56.555Z,101600.31
2022-07-31T04:28:39.224Z,101609.69
2022-07-31T04:31:08.089Z,101599.28
2022-07-31T04:33:47.304Z,101607.78
2022-07-31T04:36:30.303Z,101600.97
2022-07-31T04:39:03.921Z,101590.94
2022-07-31T04:41:34.050Z,101585.41
2022-07-31T04:44:05.109Z,101587.75
2022-07-31T04:46:53.444Z,101582.66
2022-07-31T04:49:22.958Z,101582.44
2022-07-31T04:51:55.022Z,101574.34
2022-07-31T04:54:25.530Z,101579.03
2022-07-31T04:56:59.803Z,101573.06
2022-07-31T05:00:00.599Z,101586.47
2022-07-31T05:02:21.892Z,101579.22
2022-07-31T05:04:56.664Z,101574.13
2022-07-31T05:07:37.926Z,101572.63
2022-07-31T05:10:33.648Z,101572.16
2022-07-31T05:13:04.061Z,101561.88
2022-07-31T05:15:37.875Z,101565.38
2022-07-31T05:18:10.366Z,101560.88
2022-07-31T05:20:57.330Z,101562.44
2022-07-31T05:23:51.028Z,101567.75
2022-07-31T05:26:27.283Z,101571.34
2022-07-31T05:28:58.479Z,101559.44
2022-07-31T05:31:27.852Z,101548.56
2022-07-31T05:33:57.716Z,101541.31
2022-07-31T05:36:26.101Z,101536.00
2022-07-31T05:38:55.769Z,101546.00
2022-07-31T05:41:34.028Z,101545.16
2022-07-31T05:44:16.504Z,101549.00
2022-07-31T05:46:47.564Z,101539.56
2022-07-31T05:49:16.458Z,101536.16
2022-07-31T05:51:47.579Z,101546.63
2022-07-31T05:54:17.618Z,101542.38
2022-07-31T05:57:32.825Z,101545.53
2022-07-31T06:00:04.004Z,101542.59
2022-07-31T06:02:40.600Z,101535.16
2022-07-31T06:05:22.886Z,101540.28
2022-07-31T06:07:52.070Z,101538.53
2022-07-31T06:10:24.897Z,101536.41
2022-07-31T06:12:53.670Z,101548.56
2022-07-31T06:15:22.380Z,101544.09
2022-07-31T06:17:51.055Z,101547.09
2022-07-31T06:20:25.926Z,101550.25
2022-07-31T06:22:55.908Z,101551.13
2022-07-31T06:25:34.936Z,101551.13
2022-07-31T06:28:11.921Z,101534.50
2022-07-31T06:30:43.386Z,101528.38
2022-07-31T06:33:17.217Z,101524.31
2022-07-31T06:36:04.416Z,101524.06
2022-07-31T06:38:41.529Z,101523.88
2022-07-31T06:41:49.759Z,101516.34
2022-07-31T06:44:34.487Z,101512.94
2022-07-31T06:47:40.691Z,101503.97
2022-07-31T06:50:19.012Z,101503.09
2022-07-31T06:52:57.540Z,101498.81
2022-07-31T06:55:28.685Z,101503.09
2022-07-31T06:58:01.954Z,101509.28
2022-07-31T07:00:30.809Z,101510.31
2022-07-31T07:03:02.064Z,101507.75
2022-07-31T07:05:34.790Z,101509.03
2022-07-31T07:08:08.623Z,101512.97
2022-07-31T07:10:39.165Z,101512.97
2022-07-31T07:13:24.887Z,101509.13
2022-07-31T07:16:14.861Z,101505.41
2022-07-31T07:18:45.630Z,101494.16
2022-07-31T07:21:16.727Z,101495.72
2022-07-31T07:23:45.745Z,101497.09
2022-07-31T07:26:20.887Z,101495.59
2022-07-31T07:28:54.521Z,101490.41
2022-07-31T07:31:31.669Z,101496.28
2022-07-31T07:34:11.248Z,101489.72
2022-07-31T07:36:42.160Z,101488.66
2022-07-31T07:39:20.469Z,101481.22
2022-07-31T07:41:52.799Z,101483.00
2022-07-31T07:44:26.936Z,101479.25
2022-07-31T07:46:56.817Z,101482.59
2022-07-31T07:49:29.048Z,101468.19
2022-07-31T07:52:28.980Z,101474.91
2022-07-31T07:55:05.722Z,101467.38
2022-07-31T07:58:01.127Z,101476.72
2022-07-31T08:01:00.504Z,101476.13
2022-07-31T08:03:49.467Z,101476.72
2022-07-31T08:06:23.608Z,101475.22
2022-07-31T08:08:55.611Z,101476.69
2022-07-31T08:11:45.809Z,101482.06
2022-07-31T08:14:26.331Z,101482.88
2022-07-31T08:17:22.865Z,101491.38
2022-07-31T08:19:55.411Z,101487.31
2022-07-31T08:22:24.105Z,101473.50
2022-07-31T08:24:52.019Z,101479.50
2022-07-31T08:27:39.556Z,101476.13
2022-07-31T08:30:09.743Z,101478.78
2022-07-31T08:32:41.569Z,101482.88
2022-07-31T08:35:37.699Z,101495.06
2022-07-31T08:38:11.107Z,101488.88
2022-07-31T08:40:59.196Z,101481.16
2022-07-31T08:44:02.331Z,101482.84
2022-07-31T08:46:24.418Z,101476.00
2022-07-31T08:49:00.046Z,101486.88
2022-07-31T08:51:32.893Z,101489.22
2022-07-31T08:54:46.907Z,101487.97
2022-07-31T08:57:19.303Z,101482.69
2022-07-31T08:59:52.832Z,101485.44
2022-07-31T09:02:23.627Z,101483.53
2022-07-31T09:05:18.458Z,101479.66
2022-07-31T09:07:48.923Z,101492.00
2022-07-31T09:10:26.682Z,101486.25
2022-07-31T09:12:58.187Z,101488.78
2022-07-31T09:15:31.280Z,101487.72
2022-07-31T09:18:05.057Z,101491.44
2022-07-31T09:20:38.186Z,101497.41
2022-07-31T09:23:09.103Z,101497.19
2022-07-31T09:25:51.789Z,101481.81
2022-07-31T09:28:23.372Z,101490.38
2022-07-31T09:30:57.357Z,101484.28
2022-07-31T09:33:55.900Z,101488.81
2022-07-31T09:36:43.204Z,101493.00
2022-07-31T09:39:29.988Z,101486.22
2022-07-31T09:42:17.272Z,101480.88
2022-07-31T09:45:21.586Z,101478.72
2022-07-31T09:48:03.947Z,101473.13
2022-07-31T09:50:32.170Z,101474.16
2022-07-31T09:53:02.353Z,101476.91
2022-07-31T09:55:36.428Z,101469.03
2022-07-31T09:58:06.443Z,101468.97
2022-07-31T10:00:42.139Z,101472.34
2022-07-31T10:03:14.745Z,101471.34
2022-07-31T10:05:44.031Z,101474.50
2022-07-31T10:08:17.797Z,101474.56
2022-07-31T10:11:07.197Z,101473.25
2022-07-31T10:13:55.225Z,101470.84
2022-07-31T10:16:28.430Z,101463.59
2022-07-31T10:19:18.574Z,101464.50
2022-07-31T10:22:10.612Z,101468.72
2022-07-31T10:24:48.867Z,101466.44
2022-07-31T10:27:19.143Z,101468.63
2022-07-31T10:29:56.776Z,101464.16
2022-07-31T10:32:30.673Z,101466.31
2022-07-31T10:35:20.595Z,101464.63
2022-07-31T10:38:09.473Z,101462.69
2022-07-31T10:41:11.692Z,101459.53
2022-07-31T10:43:47.846Z,101460.16
2022-07-31T10:46:28.884Z,101456.34
2022-07-31T10:49:46.165Z,101456.31
2022-07-31T10:53:00.502Z,101451.25
2022-07-31T10:55:38.493Z,101446.75
2022-07-31T10:58:22.648Z,101443.34
2022-07-31T11:01:06.737Z,101442.94
2022-07-31T11:04:05.282Z,101436.28
2022-07-31T11:07:15.919Z,101432.44
2022-07-31T11:10:12.212Z,101428.25
2022-07-31T11:13:05.118Z,101428.66
2022-07-31T11:16:08.261Z,101421.38
2022-07-31T11:18:59.903Z,101419.69
2022-07-31T11:21:39.396Z,101416.06
2022-07-31T11:24:19.183Z,101413.50
2022-07-31T11:26:54.518Z,101415.22
2022-07-31T11:29:58.525Z,101406.69
2022-07-31T11:32:26.445Z,101407.13
2022-07-31T11:34:59.165Z,101399.47
2022-07-31T11:37:57.081Z,101397.16
2022-07-31T11:40:27.864Z,101401.69
2022-07-31T11:45:55.272Z,101397.22
2022-07-31T11:48:38.053Z,101395.09
2022-07-31T11:51:10.240Z,101398.94
2022-07-31T11:53:44.210Z,101393.19
2022-07-31T11:56:13.235Z,101387.53
2022-07-31T11:58:50.433Z,101390.22
2022-07-31T12:01:22.511Z,101389.44
2022-07-31T12:03:55.817Z,101391.31
2022-07-31T12:06:27.274Z,101391.97
2022-07-31T12:09:00.190Z,101387.91
2022-07-31T12:11:30.993Z,101376.19
2022-07-31T12:14:01.473Z,101383.28
2022-07-31T12:16:42.452Z,101377.09
2022-07-31T12:19:15.259Z,101368.34
2022-07-31T12:21:46.714Z,101376.88
2022-07-31T12:24:16.075Z,101367.09
2022-07-31T12:26:50.038Z,101370.50
2022-07-31T12:29:17.996Z,101365.41
2022-07-31T12:31:48.474Z,101364.13
2022-07-31T12:34:28.730Z,101361.13
2022-07-31T12:37:01.455Z,101360.91
2022-07-31T12:39:47.493Z,101352.03
2022-07-31T12:42:30.446Z,101359.06
2022-07-31T12:45:18.406Z,101365.19
2022-07-31T12:47:51.379Z,101353.94
2022-07-31T12:50:21.998Z,101338.59
2022-07-31T12:52:50.008Z,101339.91
2022-07-31T12:55:18.140Z,101341.38
2022-07-31T12:57:50.452Z,101342.44
2022-07-31T13:00:22.487Z,101345.63
2022-07-31T13:02:50.661Z,101342.91
2022-07-31T13:05:18.934Z,101339.69
2022-07-31T13:07:48.562Z,101348.34
2022-07-31T13:10:23.874Z,101343.28
2022-07-31T13:12:52.626Z,101343.47
2022-07-31T13:15:23.112Z,101347.09
2022-07-31T13:17:51.362Z,101335.41
2022-07-31T13:20:19.637Z,101336.06
2022-07-31T13:22:51.182Z,101338.22
2022-07-31T13:25:21.121Z,101330.72
2022-07-31T13:27:51.769Z,101329.69
2022-07-31T13:30:22.264Z,101322.22
2022-07-31T13:32:52.380Z,101317.06
2022-07-31T13:35:29.028Z,101323.50
2022-07-31T13:38:01.704Z,101314.16
2022-07-31T13:40:49.105Z,101317.28
2022-07-31T13:43:19.456Z,101323.59
2022-07-31T13:45:51.041Z,101327.91
2022-07-31T13:48:20.364Z,101328.38
2022-07-31T13:50:51.278Z,101319.41
2022-07-31T13:53:23.244Z,101324.06
2022-07-31T13:55:51.390Z,101313.78
2022-07-31T13:58:21.245Z,101317.63
2022-07-31T14:00:51.726Z,101316.28
2022-07-31T14:03:22.448Z,101310.13
2022-07-31T14:05:55.273Z,101315.03
2022-07-31T14:08:32.905Z,101314.78
2022-07-31T14:11:18.994Z,101310.25
2022-07-31T14:13:49.641Z,101305.97
2022-07-31T14:16:20.038Z,101302.94
2022-07-31T14:18:50.429Z,101304.22
2022-07-31T14:21:21.464Z,101300.00
2022-07-31T14:23:53.406Z,101299.38
2022-07-31T14:26:24.650Z,101293.44
2022-07-31T14:28:56.554Z,101298.13
2022-07-31T14:31:27.917Z,101299.81
2022-07-31T14:33:59.246Z,101293.00
2022-07-31T14:36:29.943Z,101311.97
2022-07-31T14:39:02.010Z,101307.28
2022-07-31T14:41:32.155Z,101311.19
2022-07-31T14:44:03.895Z,101307.09
2022-07-31T14:46:35.448Z,101304.53
2022-07-31T14:49:08.239Z,101303.91
2022-07-31T14:51:38.378Z,101309.53
2022-07-31T14:54:09.636Z,101309.69
2022-07-31T14:57:00.113Z,101299.22
2022-07-31T14:59:32.005Z,101307.28
2022-07-31T15:02:02.967Z,101308.00
2022-07-31T15:04:33.242Z,101307.56
2022-07-31T15:07:32.563Z,101305.44
2022-07-31T15:09:57.974Z,101297.72
2022-07-31T15:12:29.125Z,101298.78
2022-07-31T15:14:59.934Z,101303.34
2022-07-31T15:17:30.491Z,101305.69
2022-07-31T15:20:00.189Z,101301.63
2022-07-31T15:22:30.459Z,101295.97
2022-07-31T15:25:03.238Z,101302.97
2022-07-31T15:27:33.725Z,101301.41
2022-07-31T15:30:07.797Z,101305.16
2022-07-31T15:32:41.313Z,101302.16
2022-07-31T15:35:12.787Z,101303.16
2022-07-31T15:37:45.579Z,101294.00
2022-07-31T15:40:20.350Z,101298.03
2022-07-31T15:42:50.960Z,101295.72
2022-07-31T15:45:21.801Z,101288.00
2022-07-31T15:47:52.969Z,101283.56
2022-07-31T15:50:23.347Z,101292.03
2022-07-31T15:52:53.154Z,101292.13
2022-07-31T15:55:25.973Z,101284.72
2022-07-31T15:57:58.841Z,101288.81
2022-07-31T16:00:30.781Z,101292.59
2022-07-31T16:03:04.623Z,101301.91
2022-07-31T16:05:38.759Z,101291.06
2022-07-31T16:08:30.685Z,101291.78
2022-07-31T16:11:00.774Z,101295.31
2022-07-31T16:13:32.304Z,101286.66
2022-07-31T16:16:02.899Z,101288.47
2022-07-31T16:18:33.633Z,101282.88
2022-07-31T16:21:04.938Z,101286.41
2022-07-31T16:23:39.194Z,101282.78
2022-07-31T16:26:14.114Z,101277.25
2022-07-31T16:28:45.271Z,101281.13
2022-07-31T16:31:30.279Z,101289.78
2022-07-31T16:34:02.564Z,101288.97
2022-07-31T16:36:34.330Z,101285.78
2022-07-31T16:39:20.045Z,101282.38
2022-07-31T16:41:55.013Z,101284.28
2022-07-31T16:44:27.560Z,101278.28
2022-07-31T16:46:57.599Z,101275.94
2022-07-31T16:49:36.776Z,101278.19
2022-07-31T16:52:08.599Z,101270.28
2022-07-31T16:54:40.570Z,101272.41
2022-07-31T16:57:14.422Z,101275.72
2022-07-31T16:59:57.408Z,101270.66
2022-07-31T17:02:28.415Z,101273.56
2022-07-31T17:04:58.920Z,101272.22
2022-07-31T17:07:31.249Z,101272.00
2022-07-31T17:10:03.317Z,101273.78
2022-07-31T17:12:37.923Z,101276.63
2022-07-31T17:15:09.955Z,101276.63
2022-07-31T17:17:40.473Z,101270.63
2022-07-31T17:20:11.016Z,101271.75
2022-07-31T17:22:42.965Z,101274.97
2022-07-31T17:25:14.502Z,101271.06
2022-07-31T17:27:46.577Z,101276.19
2022-07-31T17:30:18.130Z,101284.47
2022-07-31T17:32:48.178Z,101282.28
2022-07-31T17:35:20.340Z,101267.97
2022-07-31T17:37:52.469Z,101274.47
2022-07-31T17:40:42.605Z,101273.91
2022-07-31T17:43:15.707Z,101278.81
2022-07-31T17:46:05.349Z,101283.88
2022-07-31T17:48:37.560Z,101288.56
2022-07-31T17:51:10.995Z,101282.78
2022-07-31T17:53:54.622Z,101289.63
2022-07-31T17:56:30.208Z,101286.66
2022-07-31T17:59:06.741Z,101283.91
2022-07-31T18:01:38.795Z,101292.91
2022-07-31T18:04:08.935Z,101288.88
2022-07-31T18:06:40.765Z,101289.31
2022-07-31T18:09:09.494Z,101291.03
2022-07-31T18:11:40.365Z,101281.28
2022-07-31T18:14:11.723Z,101288.22
2022-07-31T18:16:41.648Z,101291.84
2022-07-31T18:19:12.865Z,101288.81
2022-07-31T18:21:45.118Z,101293.25
2022-07-31T18:24:14.109Z,101298.19
2022-07-31T18:26:44.727Z,101302.06
2022-07-31T18:29:17.170Z,101290.59
2022-07-31T18:31:47.648Z,101293.41
2022-07-31T18:34:19.044Z,101296.16
2022-07-31T18:36:52.913Z,101303.56
2022-07-31T18:39:26.848Z,101310.91
2022-07-31T18:41:59.120Z,101309.69
2022-07-31T18:44:31.498Z,101313.56
2022-07-31T18:47:02.202Z,101304.88
2022-07-31T18:51:01.761Z,101306.97
2022-07-31T18:52:21.340Z,101312.75
2022-07-31T18:54:54.372Z,101311.75
2022-07-31T18:57:25.550Z,101315.97
2022-07-31T18:59:57.612Z,101313.63
2022-07-31T19:02:31.014Z,101304.91
2022-07-31T19:05:02.841Z,101316.81
2022-07-31T19:07:38.204Z,101319.94
2022-07-31T19:10:12.175Z,101317.34
2022-07-31T19:13:02.836Z,101319.88
2022-07-31T19:15:38.258Z,101323.03
2022-07-31T19:18:10.180Z,101326.44
2022-07-31T19:21:00.310Z,101324.50
2022-07-31T19:23:36.449Z,101324.09
2022-07-31T19:26:05.204Z,101332.19
2022-07-31T19:28:33.610Z,101330.25
2022-07-31T19:31:03.104Z,101332.16
2022-07-31T19:33:31.158Z,101330.50
2022-07-31T19:36:02.195Z,101337.53
2022-07-31T19:38:31.348Z,101340.09
2022-07-31T19:41:00.226Z,101349.03
2022-07-31T19:43:28.507Z,101348.16
2022-07-31T19:46:10.741Z,101348.38
2022-07-31T19:48:42.256Z,101350.94
2022-07-31T19:51:10.992Z,101355.38
2022-07-31T19:53:39.447Z,101356.69
2022-07-31T19:56:07.952Z,101365.25
2022-07-31T19:58:37.063Z,101374.63
2022-07-31T20:01:06.672Z,101375.97
2022-07-31T20:03:35.186Z,101377.66
2022-07-31T20:06:05.507Z,101385.13
2022-07-31T20:08:34.057Z,101390.00
2022-07-31T20:11:04.033Z,101388.50
2022-07-31T20:13:32.781Z,101383.22
2022-07-31T20:16:01.482Z,101393.84
2022-07-31T20:18:30.565Z,101390.41
2022-07-31T20:21:02.541Z,101395.53
2022-07-31T20:23:34.552Z,101403.63
2022-07-31T20:26:03.576Z,101402.34
2022-07-31T20:28:34.740Z,101405.13
2022-07-31T20:31:03.853Z,101397.25
2022-07-31T20:33:36.194Z,101401.78
2022-07-31T20:36:07.750Z,101400.00
2022-07-31T20:38:41.593Z,101394.69
2022-07-31T20:41:17.447Z,101395.09
2022-07-31T20:43:53.770Z,101397.41
2022-07-31T20:46:23.482Z,101397.16
2022-07-31T20:48:53.382Z,101398.69
2022-07-31T20:51:25.797Z,101395.50
2022-07-31T20:53:59.103Z,101399.94
2022-07-31T20:56:28.135Z,101396.34
2022-07-31T20:58:56.749Z,101407.63
2022-07-31T21:01:26.277Z,101403.38
2022-07-31T21:03:56.270Z,101403.56
2022-07-31T21:06:25.607Z,101402.06
2022-07-31T21:08:56.163Z,101401.22
2022-07-31T21:11:31.178Z,101406.53
2022-07-31T21:14:01.062Z,101412.28
2022-07-31T21:16:31.186Z,101409.75
2022-07-31T21:19:02.477Z,101410.16
2022-07-31T21:21:34.011Z,101413.13
2022-07-31T21:24:05.761Z,101421.00
2022-07-31T21:26:35.111Z,101424.63
2022-07-31T21:29:03.764Z,101431.47
2022-07-31T21:31:34.304Z,101424.63
2022-07-31T21:34:03.678Z,101428.88
2022-07-31T21:36:32.109Z,101434.84
2022-07-31T21:39:03.417Z,101437.19
2022-07-31T21:41:37.142Z,101436.56
2022-07-31T21:44:10.470Z,101441.44
2022-07-31T21:46:44.023Z,101449.97
2022-07-31T21:49:21.634Z,101438.06
2022-07-31T21:51:50.888Z,101447.22
2022-07-31T21:54:20.991Z,101435.72
2022-07-31T21:56:55.657Z,101445.09
2022-07-31T21:59:28.897Z,101447.88
2022-07-31T22:02:01.830Z,101449.34
2022-07-31T22:04:34.822Z,101449.19
2022-07-31T22:07:22.942Z,101452.59
2022-07-31T22:09:52.185Z,101451.97
2022-07-31T22:12:22.505Z,101454.09
2022-07-31T22:14:54.112Z,101449.19
2022-07-31T22:17:27.305Z,101450.69
2022-07-31T22:19:59.228Z,101454.50
2022-07-31T22:22:30.957Z,101459.19
2022-07-31T22:25:00.811Z,101473.03
2022-07-31T22:27:48.482Z,101468.59
2022-07-31T22:30:17.475Z,101478.13
2022-07-31T22:32:46.941Z,101470.50
2022-07-31T22:35:17.046Z,101478.59
2022-07-31T22:37:47.094Z,101476.06
2022-07-31T22:40:16.511Z,101479.44
2022-07-31T22:42:57.574Z,101475.19
2022-07-31T22:45:26.713Z,101480.94
2022-07-31T22:47:57.986Z,101480.72
2022-07-31T22:50:26.419Z,101483.50
2022-07-31T22:52:54.544Z,101483.69
2022-07-31T22:55:22.614Z,101486.25
2022-07-31T22:57:51.943Z,101491.16
2022-07-31T23:00:20.047Z,101484.56
2022-07-31T23:02:48.197Z,101488.81
2022-07-31T23:05:16.345Z,101493.91
2022-07-31T23:07:44.412Z,101495.00
2022-07-31T23:10:12.820Z,101499.88
2022-07-31T23:12:40.744Z,101496.03
2022-07-31T23:15:10.274Z,101499.25
2022-07-31T23:17:38.391Z,101503.28
2022-07-31T23:20:07.421Z,101496.91
2022-07-31T23:22:35.581Z,101501.16
2022-07-31T23:25:03.794Z,101493.50
2022-07-31T23:27:31.737Z,101493.94
2022-07-31T23:29:59.983Z,101502.44
2022-07-31T23:32:29.549Z,101497.31
2022-07-31T23:34:57.853Z,101506.03
2022-07-31T23:37:26.132Z,101510.09
2022-07-31T23:39:54.343Z,101512.88
2022-07-31T23:42:39.909Z,101506.47
2022-07-31T23:45:11.524Z,101511.34
2022-07-31T23:47:45.424Z,101513.06
2022-07-31T23:50:15.425Z,101517.97
2022-07-31T23:52:43.886Z,101518.41
2022-07-31T23:55:12.962Z,101518.81
2022-07-31T23:57:41.008Z,101521.16
